Main page
METAR-TAF:

METAR-TAF

Airports :

Fitch H. Beach Airport

Charlotte, Michigan, United States

latitude: 42-34-28N, longitude: 084-48-41W, elevation: 271 m

Current weather observation

The report was made 24 minutes ago, at 12:55 UTC
Wind 1 kt from variable directions
Temperature 25°C
Humidity 83%
Pressure 1026 hPa
Visibility: 16.1 km
Clear sky

METAR: KFPK 201255Z AUTO VRB01KT 10SM CLR 25/22 A3029 RMK AO2

Time: 09:19 (13:19 UTC)


TAF: missing

Weather observations and forecasts of more than 4000 airports (METAR and TAF reports).

The available stations are represented by yellow and red dots on the map.

Hover mouse over dot to see the name of the station.

Then click to see weather observations and forecasts.

To change the map : click on the green buttons with a black cross to zoom in, on the green button with a dash to zoom out, or on the green arrows for adjacent maps.


METAR-TAF: